createdAt,value
2022-11-24T00:01:28.715Z,9.37
2022-11-24T00:04:02.201Z,9.37
2022-11-24T00:06:31.785Z,9.26
2022-11-24T00:08:59.257Z,9.33
2022-11-24T00:11:30.089Z,9.27
2022-11-24T00:13:58.303Z,9.15
2022-11-24T00:16:34.762Z,9.20
2022-11-24T00:19:09.155Z,9.22
2022-11-24T00:21:37.377Z,9.23
2022-11-24T00:24:04.956Z,9.17
2022-11-24T00:26:34.605Z,9.14
2022-11-24T00:29:04.635Z,9.35
2022-11-24T00:31:37.904Z,9.33
2022-11-24T00:34:14.222Z,9.11
2022-11-24T00:36:42.226Z,9.27
2022-11-24T00:39:13.624Z,9.11
2022-11-24T00:41:41.809Z,9.08
2022-11-24T00:44:09.288Z,9.13
2022-11-24T00:46:37.765Z,9.13
2022-11-24T00:49:05.131Z,9.02
2022-11-24T00:51:32.323Z,8.94
2022-11-24T00:54:01.075Z,8.79
2022-11-24T00:56:30.530Z,8.90
2022-11-24T00:58:57.612Z,8.82
2022-11-24T01:01:27.945Z,8.81
2022-11-24T01:03:55.791Z,8.68
2022-11-24T01:06:25.938Z,8.79
2022-11-24T01:08:53.369Z,8.76
2022-11-24T01:11:21.330Z,8.70
2022-11-24T01:13:52.307Z,8.72
2022-11-24T01:16:29.573Z,8.71
2022-11-24T01:18:57.543Z,8.66
2022-11-24T01:21:25.106Z,8.82
2022-11-24T01:23:52.244Z,8.86
2022-11-24T01:26:22.253Z,8.74
2022-11-24T01:28:54.656Z,8.90
2022-11-24T01:31:22.658Z,8.83
2022-11-24T01:33:49.726Z,8.81
2022-11-24T01:36:16.790Z,8.87
2022-11-24T01:38:43.712Z,8.90
2022-11-24T01:41:16.257Z,9.01
2022-11-24T01:43:45.340Z,9.11
2022-11-24T01:46:20.084Z,8.84
2022-11-24T01:48:56.569Z,9.01
2022-11-24T01:51:27.887Z,8.93
2022-11-24T01:54:03.248Z,9.06
2022-11-24T01:56:32.061Z,9.01
2022-11-24T01:59:02.018Z,8.99
2022-11-24T02:01:31.443Z,8.91
2022-11-24T02:03:59.845Z,8.86
2022-11-24T02:06:33.052Z,9.00
2022-11-24T02:09:36.424Z,8.96
2022-11-24T02:12:04.017Z,8.92
2022-11-24T02:14:31.089Z,8.81
2022-11-24T02:16:58.159Z,8.91
2022-11-24T02:19:40.311Z,8.84
2022-11-24T02:22:21.454Z,8.78
2022-11-24T02:25:01.199Z,8.87
2022-11-24T02:27:28.766Z,8.84
2022-11-24T02:29:55.818Z,8.76
2022-11-24T02:32:23.947Z,8.76
2022-11-24T02:35:00.043Z,8.76
2022-11-24T02:37:27.002Z,8.83
2022-11-24T02:39:53.927Z,8.79
2022-11-24T02:42:21.138Z,8.74
2022-11-24T02:44:53.463Z,8.70
2022-11-24T02:47:20.424Z,8.78
2022-11-24T02:49:47.386Z,8.79
2022-11-24T02:52:14.636Z,8.95
2022-11-24T02:54:41.894Z,8.81
2022-11-24T02:57:09.497Z,8.76
2022-11-24T02:59:36.410Z,8.80
2022-11-24T03:02:03.956Z,8.76
2022-11-24T03:04:31.111Z,8.78
2022-11-24T03:06:58.307Z,8.75
2022-11-24T03:09:25.196Z,8.66
2022-11-24T03:11:52.125Z,8.66
2022-11-24T03:14:19.034Z,8.63
2022-11-24T03:16:46.012Z,8.70
2022-11-24T03:19:13.073Z,8.54
2022-11-24T03:21:39.999Z,8.50
2022-11-24T03:24:06.971Z,8.48
2022-11-24T03:26:35.101Z,8.43
2022-11-24T03:29:02.044Z,8.58
2022-11-24T03:31:29.221Z,8.34
2022-11-24T03:33:56.480Z,8.38
2022-11-24T03:36:23.489Z,8.48
2022-11-24T03:38:50.385Z,8.56
2022-11-24T03:41:17.301Z,8.53
2022-11-24T03:43:44.467Z,8.47
2022-11-24T03:46:12.712Z,8.55
2022-11-24T03:48:39.934Z,8.61
2022-11-24T03:51:07.248Z,8.65
2022-11-24T03:53:34.819Z,8.64
2022-11-24T03:56:02.589Z,8.66
2022-11-24T03:58:30.103Z,8.69
2022-11-24T04:00:57.403Z,8.74
2022-11-24T04:03:25.215Z,8.74
2022-11-24T04:05:52.247Z,8.95
2022-11-24T04:08:19.747Z,8.88
2022-11-24T04:10:51.568Z,9.02
2022-11-24T04:13:22.810Z,8.85
2022-11-24T04:15:50.036Z,8.83
2022-11-24T04:18:17.291Z,8.81
2022-11-24T04:20:44.999Z,8.86
2022-11-24T04:23:12.311Z,8.92
2022-11-24T04:25:39.632Z,8.95
2022-11-24T04:28:06.539Z,8.89
2022-11-24T04:30:33.609Z,8.88
2022-11-24T04:33:00.550Z,8.81
2022-11-24T04:35:27.734Z,8.84
2022-11-24T04:37:54.687Z,8.92
2022-11-24T04:40:21.720Z,8.91
2022-11-24T04:42:56.816Z,8.95
2022-11-24T04:45:24.478Z,8.89
2022-11-24T04:47:51.557Z,8.92
2022-11-24T04:50:18.973Z,8.97
2022-11-24T04:52:45.938Z,9.09
2022-11-24T04:55:13.074Z,9.01
2022-11-24T04:57:40.061Z,9.01
2022-11-24T05:00:07.955Z,9.00
2022-11-24T05:02:35.133Z,9.14
2022-11-24T05:05:02.144Z,9.03
2022-11-24T05:07:29.421Z,8.94
2022-11-24T05:10:14.765Z,8.85
2022-11-24T05:12:43.791Z,9.06
2022-11-24T05:15:14.073Z,9.02
2022-11-24T05:17:41.370Z,9.08
2022-11-24T05:20:08.787Z,9.05
2022-11-24T05:22:35.785Z,9.08
2022-11-24T05:25:03.243Z,9.21
2022-11-24T05:27:30.298Z,9.08
2022-11-24T05:29:57.287Z,9.11
2022-11-24T05:32:24.711Z,9.12
2022-11-24T05:34:53.107Z,9.08
2022-11-24T05:37:20.994Z,9.04
2022-11-24T05:39:48.132Z,8.96
2022-11-24T05:42:33.560Z,9.08
2022-11-24T05:45:00.699Z,8.95
2022-11-24T05:47:27.642Z,9.09
2022-11-24T05:49:54.581Z,9.02
2022-11-24T05:52:21.500Z,8.91
2022-11-24T05:54:48.546Z,9.18
2022-11-24T05:57:17.786Z,9.04
2022-11-24T06:33:22.831Z,9.05
2022-11-24T06:44:06.533Z,8.88
2022-11-24T06:56:19.947Z,8.76
2022-11-24T09:02:58.913Z,9.18
2022-11-24T09:05:51.162Z,9.10
2022-11-24T09:08:13.261Z,9.36
2022-11-24T09:10:40.307Z,9.31
2022-11-24T09:13:07.259Z,9.16
2022-11-24T09:15:35.986Z,9.29
2022-11-24T09:18:02.952Z,9.29
2022-11-24T09:20:29.871Z,9.29
2022-11-24T09:22:57.056Z,9.49
2022-11-24T09:25:24.080Z,9.59
2022-11-24T09:27:51.330Z,9.44
2022-11-24T09:30:18.444Z,9.60
2022-11-24T09:32:45.458Z,9.49
2022-11-24T09:35:12.459Z,9.47
2022-11-24T09:37:39.355Z,9.60
2022-11-24T09:40:07.466Z,9.95
2022-11-24T09:42:37.341Z,9.89
2022-11-24T09:45:57.499Z,9.81
2022-11-24T09:48:42.057Z,9.79
2022-11-24T09:51:14.747Z,9.84
2022-11-24T09:54:02.389Z,9.75
2022-11-24T09:56:34.642Z,9.94
2022-11-24T09:59:23.639Z,9.78
2022-11-24T10:01:52.619Z,9.70
2022-11-24T10:04:41.161Z,9.70
2022-11-24T10:07:39.326Z,9.78
2022-11-24T10:10:24.830Z,9.69
2022-11-24T10:13:30.913Z,9.87
2022-11-24T10:16:04.169Z,9.97
2022-11-24T10:18:47.518Z,10.25
2022-11-24T10:21:20.213Z,10.50
2022-11-24T10:24:17.555Z,10.55
2022-11-24T10:26:59.515Z,10.63
2022-11-24T10:29:43.115Z,10.44
2022-11-24T10:32:25.884Z,10.34
2022-11-24T10:34:54.597Z,10.28
2022-11-24T10:37:35.683Z,10.39
2022-11-24T10:40:58.627Z,10.28
2022-11-24T10:43:15.599Z,10.46
2022-11-24T10:45:42.523Z,10.33
2022-11-24T10:49:05.663Z,10.46
2022-11-24T10:51:56.261Z,10.61
2022-11-24T10:54:24.298Z,10.69
2022-11-24T10:56:53.479Z,10.63
2022-11-24T10:59:39.580Z,10.71
2022-11-24T11:02:30.207Z,10.76
2022-11-24T11:04:57.581Z,10.73
2022-11-24T11:07:27.690Z,10.77
2022-11-24T11:10:22.904Z,10.76
2022-11-24T11:12:50.486Z,10.73
2022-11-24T11:15:27.540Z,11.03
2022-11-24T11:17:59.187Z,10.89
2022-11-24T11:20:35.364Z,10.97
2022-11-24T11:23:16.878Z,11.09
2022-11-24T11:25:43.932Z,11.43
2022-11-24T11:28:18.284Z,11.60
2022-11-24T11:31:19.982Z,11.54
2022-11-24T11:34:16.643Z,11.48
2022-11-24T11:36:51.279Z,11.59
2022-11-24T11:39:25.273Z,11.67
2022-11-24T11:42:07.668Z,11.85
2022-11-24T11:45:06.604Z,11.78
2022-11-24T11:47:52.491Z,11.70
2022-11-24T11:51:27.514Z,11.72
2022-11-24T11:54:22.212Z,11.67
2022-11-24T11:57:03.100Z,11.51
2022-11-24T12:00:00.318Z,11.26
2022-11-24T12:03:01.906Z,11.44
2022-11-24T12:05:50.007Z,11.43
2022-11-24T12:09:03.360Z,11.27
2022-11-24T12:11:59.540Z,11.50
2022-11-24T12:15:03.470Z,11.69
2022-11-24T12:17:55.391Z,11.67
2022-11-24T12:20:53.890Z,11.72
2022-11-24T12:23:30.896Z,11.80
2022-11-24T12:26:06.670Z,11.73
2022-11-24T12:29:14.020Z,11.76
2022-11-24T12:32:18.460Z,11.69
2022-11-24T12:35:05.985Z,11.99
2022-11-24T12:37:57.632Z,11.82
2022-11-24T12:40:46.956Z,12.02
2022-11-24T12:43:36.321Z,12.22
2022-11-24T12:46:36.759Z,12.13
2022-11-24T12:49:06.403Z,12.15
2022-11-24T12:51:42.804Z,11.84
2022-11-24T12:54:21.717Z,11.91
2022-11-24T12:57:33.929Z,11.91
2022-11-24T13:00:25.374Z,11.94
2022-11-24T13:03:38.464Z,12.10
2022-11-24T13:06:51.790Z,12.26
2022-11-24T13:09:18.963Z,12.16
2022-11-24T13:11:50.589Z,12.12
2022-11-24T13:14:37.956Z,12.25
2022-11-24T13:17:38.338Z,12.19
2022-11-24T13:20:33.768Z,12.12
2022-11-24T13:23:04.748Z,12.20
2022-11-24T13:25:44.081Z,12.32
2022-11-24T13:29:24.258Z,12.21
2022-11-24T13:32:07.557Z,12.31
2022-11-24T13:34:57.066Z,12.41
2022-11-24T13:37:36.810Z,12.54
2022-11-24T13:40:31.508Z,12.52
2022-11-24T13:43:03.002Z,12.43
2022-11-24T13:45:40.449Z,12.26
2022-11-24T13:48:24.087Z,12.18
2022-11-24T13:50:55.996Z,11.98
2022-11-24T13:53:37.549Z,12.05
2022-11-24T13:56:13.551Z,12.10
2022-11-24T13:58:54.950Z,11.97
2022-11-24T14:01:26.648Z,12.10
2022-11-24T14:04:29.135Z,12.08
2022-11-24T14:07:07.815Z,12.16
2022-11-24T14:09:47.470Z,12.06
2022-11-24T14:12:26.834Z,11.97
2022-11-24T14:15:20.077Z,12.07
2022-11-24T14:17:47.070Z,11.92
2022-11-24T14:20:26.320Z,11.85
2022-11-24T14:22:56.497Z,11.71
2022-11-24T14:25:32.118Z,11.67
2022-11-24T14:28:34.639Z,11.71
2022-11-24T14:31:20.258Z,11.69
2022-11-24T14:33:47.454Z,11.69
2022-11-24T14:36:17.971Z,11.62
2022-11-24T14:38:45.366Z,11.72
2022-11-24T14:41:32.094Z,11.62
2022-11-24T14:44:08.954Z,11.41
2022-11-24T14:46:36.870Z,11.61
2022-11-24T14:49:04.792Z,11.51
2022-11-24T14:51:41.277Z,11.64
2022-11-24T14:54:17.705Z,11.43
2022-11-24T14:56:58.566Z,11.48
2022-11-24T14:59:29.468Z,11.34
2022-11-24T15:01:57.428Z,11.38
2022-11-24T15:07:19.102Z,11.38
2022-11-24T15:09:53.997Z,11.57
2022-11-24T15:12:41.481Z,11.47
2022-11-24T15:15:14.400Z,11.20
2022-11-24T15:17:52.173Z,11.12
2022-11-24T15:20:41.626Z,10.96
2022-11-24T15:23:32.808Z,10.92
2022-11-24T15:26:02.909Z,10.84
2022-11-24T15:28:31.394Z,10.86
2022-11-24T15:31:06.713Z,10.66
2022-11-24T15:33:33.754Z,10.51
2022-11-24T15:36:01.032Z,10.39
2022-11-24T15:38:28.110Z,10.33
2022-11-24T15:40:59.132Z,10.26
2022-11-24T15:43:30.013Z,10.12
2022-11-24T15:45:58.750Z,10.05
2022-11-24T15:48:25.979Z,9.95
2022-11-24T15:50:54.238Z,9.86
2022-11-24T15:53:29.946Z,9.90
2022-11-24T15:55:57.866Z,9.87
2022-11-24T15:58:24.950Z,9.86
2022-11-24T16:00:53.861Z,10.20
2022-11-24T16:06:24.518Z,10.17
2022-11-24T16:08:53.648Z,10.12
2022-11-24T16:11:21.284Z,10.16
2022-11-24T16:13:52.516Z,10.00
2022-11-24T16:16:22.234Z,9.77
2022-11-24T16:18:49.556Z,9.74
2022-11-24T16:21:16.619Z,9.57
2022-11-24T16:23:43.784Z,9.44
2022-11-24T16:26:10.935Z,9.43
2022-11-24T16:28:37.998Z,9.48
2022-11-24T16:31:05.197Z,9.43
2022-11-24T16:33:32.245Z,9.55
2022-11-24T16:35:59.420Z,9.41
2022-11-24T16:38:26.380Z,9.40
2022-11-24T16:40:56.239Z,9.29
2022-11-24T16:43:24.497Z,9.39
2022-11-24T16:46:04.541Z,9.57
2022-11-24T16:48:36.344Z,9.35
2022-11-24T16:51:08.619Z,9.25
2022-11-24T16:53:36.108Z,9.26
2022-11-24T16:56:03.254Z,9.04
2022-11-24T16:58:31.516Z,8.81
2022-11-24T17:01:11.277Z,8.55
2022-11-24T17:03:39.020Z,8.24
2022-11-24T17:06:15.745Z,7.93
2022-11-24T17:08:45.213Z,7.72
2022-11-24T17:11:22.706Z,7.64
2022-11-24T17:13:50.483Z,7.59
2022-11-24T17:16:23.266Z,7.49
2022-11-24T17:18:51.140Z,7.48
2022-11-24T17:21:21.880Z,7.61
2022-11-24T17:23:53.884Z,7.41
2022-11-24T17:26:21.267Z,7.32
2022-11-24T17:28:48.350Z,7.33
2022-11-24T17:31:22.320Z,7.24
2022-11-24T17:33:50.961Z,7.16
2022-11-24T17:36:18.005Z,7.13
2022-11-24T17:38:45.097Z,7.05
2022-11-24T17:41:12.343Z,7.00
2022-11-24T17:43:39.386Z,6.99
2022-11-24T17:46:06.633Z,7.03
2022-11-24T17:48:35.028Z,7.10
2022-11-24T17:51:15.416Z,6.88
2022-11-24T17:53:45.989Z,6.94
2022-11-24T17:56:16.666Z,6.88
2022-11-24T17:58:44.199Z,7.19
2022-11-24T18:01:13.037Z,7.09
2022-11-24T18:03:41.528Z,7.04
2022-11-24T18:06:14.787Z,7.11
2022-11-24T18:08:45.115Z,7.03
2022-11-24T18:11:23.561Z,6.78
2022-11-24T18:13:59.926Z,6.77
2022-11-24T18:16:31.153Z,6.80
2022-11-24T18:19:08.713Z,6.85
2022-11-24T18:21:39.152Z,6.87
2022-11-24T18:24:10.528Z,6.96
2022-11-24T18:26:39.129Z,6.87
2022-11-24T18:29:06.279Z,6.76
2022-11-24T18:31:35.661Z,6.69
2022-11-24T18:34:05.252Z,6.82
2022-11-24T18:36:33.414Z,6.93
2022-11-24T18:39:05.816Z,6.80
2022-11-24T18:41:33.882Z,6.72
2022-11-24T18:44:07.787Z,6.68
2022-11-24T18:46:36.419Z,6.60
2022-11-24T18:49:04.469Z,6.60
2022-11-24T18:51:32.985Z,6.61
2022-11-24T18:54:02.069Z,6.62
2022-11-24T18:56:29.414Z,6.63
2022-11-24T18:58:56.913Z,6.62
2022-11-24T19:01:28.906Z,6.62
2022-11-24T19:03:59.426Z,6.61
2022-11-24T19:06:33.677Z,6.86
2022-11-24T19:09:08.072Z,6.85
2022-11-24T19:11:37.873Z,6.93
2022-11-24T19:14:09.145Z,6.81
2022-11-24T19:16:36.747Z,6.80
2022-11-24T19:19:04.423Z,6.70
2022-11-24T19:21:37.410Z,6.84
2022-11-24T19:24:06.996Z,6.58
2022-11-24T19:26:37.138Z,6.47
2022-11-24T19:29:05.830Z,6.50
2022-11-24T19:31:33.661Z,6.56
2022-11-24T19:34:02.936Z,6.83
2022-11-24T19:36:30.319Z,7.14
2022-11-24T19:38:58.627Z,7.08
2022-11-24T19:41:29.418Z,7.09
2022-11-24T19:43:58.452Z,7.08
2022-11-24T19:46:29.347Z,7.18
2022-11-24T19:49:00.704Z,7.03
2022-11-24T19:51:31.247Z,6.94
2022-11-24T19:53:58.976Z,7.17
2022-11-24T19:56:29.638Z,7.36
2022-11-24T19:58:57.369Z,7.26
2022-11-24T20:01:28.464Z,7.14
2022-11-24T20:03:58.965Z,7.03
2022-11-24T20:06:33.181Z,6.82
2022-11-24T20:09:01.106Z,6.70
2022-11-24T20:11:28.919Z,6.41
2022-11-24T20:13:56.785Z,6.39
2022-11-24T20:16:30.163Z,6.34
2022-11-24T20:19:00.341Z,6.22
2022-11-24T20:21:31.270Z,6.14
2022-11-24T20:24:22.484Z,6.21
2022-11-24T20:26:54.515Z,6.05
2022-11-24T20:29:21.582Z,5.92
2022-11-24T20:31:52.005Z,5.81
2022-11-24T20:34:21.512Z,5.64
2022-11-24T20:36:49.660Z,5.56
2022-11-24T20:39:29.269Z,5.59
2022-11-24T20:41:56.536Z,5.62
2022-11-24T20:44:26.445Z,5.61
2022-11-24T20:46:58.127Z,5.59
2022-11-24T20:49:25.760Z,5.61
2022-11-24T20:51:54.980Z,5.49
2022-11-24T20:54:22.472Z,5.44
2022-11-24T20:56:51.219Z,5.34
2022-11-24T20:59:22.555Z,5.32
2022-11-24T21:01:51.799Z,5.27
2022-11-24T21:04:23.033Z,5.20
2022-11-24T21:06:50.474Z,4.96
2022-11-24T21:09:18.115Z,4.99
2022-11-24T21:11:45.506Z,5.02
2022-11-24T21:14:12.719Z,5.03
2022-11-24T21:16:42.122Z,4.99
2022-11-24T21:19:14.788Z,5.02
2022-11-24T21:21:42.814Z,4.75
2022-11-24T21:24:16.866Z,4.77
2022-11-24T21:26:49.143Z,5.02
2022-11-24T21:29:22.376Z,4.47
2022-11-24T21:31:49.607Z,4.27
2022-11-24T21:34:19.404Z,4.23
2022-11-24T21:36:46.806Z,4.46
2022-11-24T21:39:15.291Z,4.68
2022-11-24T21:41:43.841Z,4.63
2022-11-24T21:44:13.409Z,4.45
2022-11-24T21:46:45.992Z,4.14
2022-11-24T21:49:26.225Z,4.24
2022-11-24T21:51:55.812Z,4.16
2022-11-24T21:54:23.667Z,4.12
2022-11-24T21:56:50.556Z,4.19
2022-11-24T21:59:19.996Z,4.28
2022-11-24T22:01:46.955Z,4.35
2022-11-24T22:04:14.046Z,4.37
2022-11-24T22:06:40.991Z,4.31
2022-11-24T22:09:08.070Z,4.23
2022-11-24T22:11:34.963Z,4.03
2022-11-24T22:14:01.902Z,4.03
2022-11-24T22:16:29.093Z,4.09
2022-11-24T22:18:56.249Z,4.06
2022-11-24T22:21:29.250Z,3.92
2022-11-24T22:23:56.562Z,3.79
2022-11-24T22:26:24.320Z,3.82
2022-11-24T22:28:51.409Z,3.80
2022-11-24T22:31:27.396Z,3.90
2022-11-24T22:33:55.476Z,3.70
2022-11-24T22:36:25.586Z,3.73
2022-11-24T22:39:03.861Z,3.89
2022-11-24T22:41:35.626Z,3.83
2022-11-24T22:44:02.760Z,3.89
2022-11-24T22:46:32.071Z,3.75
2022-11-24T22:49:01.444Z,3.71
2022-11-24T22:51:32.449Z,3.83
2022-11-24T22:54:02.562Z,3.79
2022-11-24T22:56:32.330Z,3.80
2022-11-24T22:59:04.694Z,3.79
2022-11-24T23:01:33.843Z,3.64
2022-11-24T23:04:01.159Z,3.58
2022-11-24T23:06:31.238Z,3.44
2022-11-24T23:09:01.084Z,3.47
2022-11-24T23:11:37.204Z,3.52
2022-11-24T23:14:07.231Z,3.60
2022-11-24T23:16:34.288Z,3.55
2022-11-24T23:19:01.214Z,3.66
2022-11-24T23:21:31.188Z,3.73
2022-11-24T23:24:03.944Z,3.74
2022-11-24T23:26:40.304Z,3.79
2022-11-24T23:29:08.178Z,3.70
2022-11-24T23:31:36.433Z,3.40
2022-11-24T23:34:04.629Z,3.39
2022-11-24T23:36:32.670Z,3.55
2022-11-24T23:39:10.954Z,3.58
2022-11-24T23:41:37.993Z,3.83
2022-11-24T23:44:05.144Z,3.98
2022-11-24T23:46:32.448Z,3.90
2022-11-24T23:48:59.915Z,3.80
2022-11-24T23:51:29.596Z,3.75
2022-11-24T23:53:57.486Z,3.71
2022-11-24T23:56:32.543Z,3.74
2022-11-24T23:59:01.725Z,3.70
